Oceanus — WDH8556 — position and weather

sailwx.info

Track history (hours):
 
Tides and Currents Weather Stations Pressure Air Temp Water Temp Dewpoint Dewpoint Depression Visibility Wind Speed Wind Dir Waves Ship Positions

Oceanus

Owner: SAN DIEGO, CITY OF, San Diego, CA. More information available from US FCC via Universal Licensing System and Coast Guard Vessel Documentation Center.

Last reported at 2017-Sep-19 20:37 UTC. Time now 2017-Sep-22 20:49 UTC.
Position N 32°43' W 117°13'.

Type: Diving. MMSI: 367659210.

Date/timePositionNaut miles runAvg speedWind from/ knotsBaromVisibWave heightAir tempDewpointWater temp
2017-Sep-19 20:37N 32°43' W 117°13'2 3.8
2017-Sep-19 20:05N 32°42' W 117°14'211.6
2017-Sep-19 19:56N 32°40' W 117°14'3 3.1
2017-Sep-19 18:56N 32°40' W 117°17'1 0.7
2017-Sep-19 17:04N 32°40' W 117°19'0 0.8
2017-Sep-19 16:45N 32°40' W 117°19'0 0.2
2017-Sep-19 16:29N 32°40' W 117°19'  
2017-Sep-14 18:54N 32°40' W 117°16'0 0.7
2017-Sep-14 18:28N 32°40' W 117°17'0 0.2
2017-Sep-14 17:15N 32°40' W 117°17'0 0.4
2017-Sep-14 17:00N 32°40' W 117°17'0 0.1
2017-Sep-14 15:34N 32°40' W 117°17'3 2.4
2017-Sep-14 14:28N 32°40' W 117°14'3 0.1
2017-Sep-13 19:59N 32°43' W 117°13'610.6
2017-Sep-13 19:26N 32°40' W 117°19'0 1.0
2017-Sep-13 18:58N 32°40' W 117°19'0 0.3
2017-Sep-13 18:16N 32°40' W 117°20'0 0.3
2017-Sep-13 17:50N 32°40' W 117°20'0 0.2
2017-Sep-13 17:30N 32°40' W 117°20'0 0.9
2017-Sep-13 17:00N 32°40' W 117°19'0 0.3
2017-Sep-13 16:28N 32°40' W 117°19'6 0.1
2017-Sep-11 17:12N 32°45' W 117°20'4 6.7
2017-Sep-11 16:40N 32°44' W 117°16'1 4.5
2017-Sep-11 16:23N 32°43' W 117°16'  
Track history (hours):
 
Tides and Currents Weather Stations Pressure Air Temp Water Temp Dewpoint Dewpoint Depression Visibility Wind Speed Wind Dir Waves Ship Positions

Oceanus

Owner: SAN DIEGO, CITY OF, San Diego, CA. More information available from US FCC via Universal Licensing System and Coast Guard Vessel Documentation Center.

Last reported at 2017-Sep-19 20:37 UTC. Time now 2017-Sep-22 20:49 UTC.
Position N 32°43' W 117°13'.

Type: Diving. MMSI: 367659210.

Date/timePositionNaut miles runAvg speedWind from/ knotsBaromVisibWave heightAir tempDewpointWater temp
2017-Sep-19 20:37N 32°43' W 117°13'2 3.8
2017-Sep-19 20:05N 32°42' W 117°14'211.6
2017-Sep-19 19:56N 32°40' W 117°14'3 3.1
2017-Sep-19 18:56N 32°40' W 117°17'1 0.7
2017-Sep-19 17:04N 32°40' W 117°19'0 0.8
2017-Sep-19 16:45N 32°40' W 117°19'0 0.2
2017-Sep-19 16:29N 32°40' W 117°19'  
2017-Sep-14 18:54N 32°40' W 117°16'0 0.7
2017-Sep-14 18:28N 32°40' W 117°17'0 0.2
2017-Sep-14 17:15N 32°40' W 117°17'0 0.4
2017-Sep-14 17:00N 32°40' W 117°17'0 0.1
2017-Sep-14 15:34N 32°40' W 117°17'3 2.4
2017-Sep-14 14:28N 32°40' W 117°14'3 0.1
2017-Sep-13 19:59N 32°43' W 117°13'610.6
2017-Sep-13 19:26N 32°40' W 117°19'0 1.0
2017-Sep-13 18:58N 32°40' W 117°19'0 0.3
2017-Sep-13 18:16N 32°40' W 117°20'0 0.3
2017-Sep-13 17:50N 32°40' W 117°20'0 0.2
2017-Sep-13 17:30N 32°40' W 117°20'0 0.9
2017-Sep-13 17:00N 32°40' W 117°19'0 0.3
2017-Sep-13 16:28N 32°40' W 117°19'6 0.1
2017-Sep-11 17:12N 32°45' W 117°20'4 6.7
2017-Sep-11 16:40N 32°44' W 117°16'1 4.5
2017-Sep-11 16:23N 32°43' W 117°16'  

Dump ship's entire track history